• Join FlightAware (Why Join?)
  • Login
  • US Flag 
12:51PM EDT


 

Airport Tracker/Info


-or-


 

Live Flight TrackerFlight Track Log ✈ SWA923 ✈ 12-May-2013 ✈ KOMA - KLAS

Flight Track Log - Related Links

Times and Time Zones

All times are in EDT time to prevent confusion due to time zone crossing. See the SWA923 flight status page for this flight to view local times or setup timezone preferences in your user account.

Time Position Orientation Groundspeed Altitude Reporting Facility
EDT Latitude Longitude Course Direction KTS MPH feet Rate Location/Type
08:28AM 41.3131 -95.9119 323° Northwest 172 198 1,900  Level Minneapolis Center
08:28AM 41.3400 -95.9394 323° Northwest 188 216 4,000 3,120 Climbing Minneapolis Center
08:29AM 41.3389 -95.9850 268° West 240 276 6,400 3,660 Climbing Minneapolis Center
08:30AM 41.2925 -96.0700 234° Southwest 263 303 10,800 3,540 Climbing Minneapolis Center
08:31AM 41.2419 -96.1642 234° Southwest 300 345 13,700 3,060 Climbing Minneapolis Center
08:32AM 41.1828 -96.2708 234° Southwest 347 399 17,100 3,000 Climbing Minneapolis Center
08:33AM 41.1219 -96.3842 235° Southwest 372 428 19,800 2,520 Climbing Minneapolis Center
08:35AM 41.0425 -96.5269 234° Southwest 396 456 23,300 2,700 Climbing Minneapolis Center
08:36AM 40.9608 -96.6758 234° Southwest 413 475 26,500 2,700 Climbing Minneapolis Center
08:37AM 40.9172 -96.8161 248° West 417 480 28,900 1,920 Climbing Minneapolis Center
08:38AM 40.9022 -96.9700 263° West 421 484 30,800 2,040 Climbing Minneapolis Center
08:39AM 40.8836 -97.1558 263° West 424 488 33,500 2,280 Climbing Minneapolis Center
08:40AM 40.8692 -97.3078 263° West 420 483 35,500 1,860 Climbing Minneapolis Center
08:41AM 40.8514 -97.4850 263° West 416 479 37,400 1,380 Climbing Minneapolis Center
08:42AM 40.8361 -97.6386 263° West 418 481 38,400 1,020 Climbing Minneapolis Center
08:43AM 40.8197 -97.7947 262° West 426 490 39,500 780 Climbing Minneapolis Center
08:44AM 40.8042 -97.9506 263° West 427 491 40,000 240 Climbing Minneapolis Center
08:45AM 40.7881 -98.1053 262° West 426 490 40,000  Level Minneapolis Center
08:46AM 40.7706 -98.2606 262° West 426 490 40,000  Level Minneapolis Center
08:47AM 40.7547 -98.4156 262° West 425 489 40,000  Level Minneapolis Center
08:48AM 40.7378 -98.5708 262° West 425 489 40,000  Level Minneapolis Center
08:49AM 40.7203 -98.7261 262° West 424 488 40,000  Level Minneapolis Center
08:50AM 40.7028 -98.8825 262° West 427 491 40,000  Level Minneapolis Center
08:51AM 40.6850 -99.0394 262° West 428 493 40,000  Level Minneapolis Center
08:52AM 40.6747 -99.1342 262° West 431 496 40,000  Level Denver Center
08:53AM 40.6525 -99.3225 261° West 431 496 40,000  Level Denver Center
08:54AM 40.6342 -99.4781 261° West 431 496 40,000  Level Denver Center
08:55AM 40.6147 -99.6342 261° West 431 496 40,000  Level Denver Center
08:56AM 40.5967 -99.7908 261° West 431 496 40,000  Level Denver Center
08:57AM 40.5786 -99.9369 261° West 431 496 40,000  Level Denver Center
08:58AM 40.5608 -100.0867 261° West 431 496 40,000  Level Denver Center
08:59AM 40.5383 -100.2586 260° West 427 491 40,000  Level Denver Center
09:00AM 40.5192 -100.4097 261° West 434 499 40,000  Level Denver Center
09:01AM 40.5003 -100.5606 261° West 434 499 40,000  Level Denver Center
09:02AM 40.4781 -100.7381 261° West 439 505 40,000  Level Denver Center
09:03AM 40.4583 -100.8906 260° West 439 505 40,000  Level Denver Center
09:04AM 40.4375 -101.0436 260° West 441 507 40,000  Level Denver Center
09:05AM 40.4169 -101.1967 260° West 444 511 40,000  Level Denver Center
09:06AM 40.3931 -101.3747 260° West 443 510 40,000  Level Denver Center
09:07AM 40.3722 -101.5275 260° West 444 511 40,000  Level Denver Center
09:08AM 40.3494 -101.6800 259° West 445 512 40,000  Level Denver Center
09:09AM 40.3278 -101.8328 260° West 446 513 40,000  Level Denver Center
09:10AM 40.3025 -102.0108 260° West 444 511 40,000  Level Denver Center
09:11AM 40.2797 -102.1661 259° West 452 520 40,000  Level Denver Center
09:12AM 40.2567 -102.3206 259° West 451 519 40,000  Level Denver Center
09:13AM 40.2300 -102.5019 259° West 456 525 40,000  Level Denver Center
09:14AM 40.2067 -102.6583 259° West 457 526 40,000  Level Denver Center
09:15AM 40.1833 -102.8139 259° West 457 526 40,000  Level Denver Center
09:16AM 40.1553 -102.9956 259° West 455 524 40,000  Level Denver Center
09:17AM 40.1314 -103.1533 259° West 462 532 40,000  Level Denver Center
09:18AM 40.1072 -103.3108 259° West 463 533 40,000  Level Denver Center
09:19AM 40.0772 -103.4953 258° West 464 534 40,000  Level Denver Center
09:20AM 40.0542 -103.6525 259° West 463 533 40,000  Level Denver Center
09:21AM 40.0267 -103.8217 258° West 477 549 40,000  Level Denver Center
09:22AM 39.9997 -103.9833 258° West 461 531 40,000  Level Denver Center
09:23AM 39.9742 -104.1456 258° West 457 526 40,000  Level Denver Center
09:24AM 39.9478 -104.3061 258° West 457 526 40,000  Level Denver Center
09:25AM 39.9211 -104.4678 258° West 457 526 40,000  Level Denver Center
09:26AM 39.8928 -104.6417 258° West 458 527 40,000  Level Denver Center
09:27AM 39.8611 -104.8033 256° West 462 532 40,000  Level Denver Center
09:28AM 39.8286 -104.9650 255° West 467 537 40,000  Level Denver Center
09:29AM 39.7983 -105.1267 256° West 462 532 40,000  Level Denver Center
09:30AM 39.7631 -105.3011 255° West 468 539 40,000  Level Denver Center
09:31AM 39.7161 -105.4606 249° West 474 545 40,000  Level Denver Center
09:32AM 39.6658 -105.6178 247° West 472 543 40,000  Level Denver Center
09:34AM 39.6164 -105.7761 248° West 473 544 40,000  Level Denver Center
09:35AM 39.5594 -105.9572 248° West 467 537 40,000  Level Denver Center
09:36AM 39.4964 -106.1497 247° West 480 552 40,000  Level Denver Center
09:37AM 39.4467 -106.3075 248° West 474 545 40,000  Level Denver Center
09:38AM 39.3911 -106.4775 247° West 476 548 40,000  Level Denver Center
09:39AM 39.3425 -106.6286 247° West 476 548 40,000  Level Denver Center
09:40AM 39.2931 -106.7781 247° West 474 545 40,000  Level Denver Center
09:41AM 39.2364 -106.9525 247° West 472 543 40,000  Level Denver Center
09:42AM 39.1878 -107.0994 247° West 466 536 40,000  Level Denver Center
09:43AM 39.1378 -107.2475 247° West 468 539 40,000  Level Denver Center
09:44AM 39.0803 -107.4214 247° West 471 542 40,000  Level Denver Center
09:45AM 39.0294 -107.5694 246° West 471 542 40,000  Level Denver Center
09:46AM 38.9792 -107.7183 247° West 472 543 40,000  Level Denver Center
09:47AM 38.9200 -107.8919 246° West 473 544 40,000  Level Denver Center
09:48AM 38.8694 -108.0417 247° West 475 547 40,000  Level Denver Center
09:49AM 38.8186 -108.1903 246° West 475 547 40,000  Level Denver Center
09:50AM 38.7583 -108.3628 246° West 474 545 40,000  Level Denver Center
09:51AM 38.7083 -108.5114 247° West 475 547 40,000  Level Denver Center
09:52AM 38.6561 -108.6597 246° West 475 547 40,000  Level Denver Center
09:53AM 38.5869 -108.8567 246° West 474 545 40,000  Level Denver Center
09:54AM 38.5350 -109.0039 246° West 473 544 40,000  Level Denver Center
09:55AM 38.4828 -109.1517 246° West 476 548 40,000  Level Denver Center
09:56AM 38.4214 -109.3222 245° Southwest 474 545 40,000  Level Denver Center
09:57AM 38.3692 -109.4681 245° Southwest 471 542 40,000  Level Denver Center
09:58AM 38.3167 -109.6119 245° Southwest 468 539 40,000  Level Denver Center
09:59AM 38.2739 -109.7297 245° Southwest 461 531 40,000  Level Denver Center
10:00AM 38.2125 -109.8972 245° Southwest 467 537 40,000  Level Denver Center
10:01AM 38.1506 -110.0667 245° Southwest 472 543 40,000  Level Denver Center
10:02AM 38.0892 -110.2342 245° Southwest 469 540 40,000  Level Denver Center
10:03AM 38.0400 -110.3800 247° West 470 541 40,000  Level Denver Center
10:04AM 38.0069 -110.5381 255° West 462 532 40,000  Level Denver Center
10:05AM 37.9722 -110.6947 254° West 463 533 40,000 -240 Level Denver Center
10:06AM 37.9369 -110.8519 254° West 464 534 39,600 -720 Descending Denver Center
10:07AM 37.9025 -111.0072 254° West 461 531 38,600 -960 Descending Denver Center
10:08AM 37.8706 -111.1678 256° West 470 541 37,700 -1,020 Descending Denver Center
10:09AM 37.8506 -111.2661 256° West 476 548 37,100 -1,020 Descending Salt Lake Center
10:10AM 37.7878 -111.4192 243° Southwest 491 565 36,200 -960 Descending Salt Lake Center
10:11AM 37.7214 -111.5733 241° Southwest 500 575 35,200 -1,020 Descending Salt Lake Center
10:12AM 37.6531 -111.7278 241° Southwest 503 579 34,200 -1,020 Descending Salt Lake Center
10:13AM 37.5989 -111.8494 241° Southwest 500 575 33,400 -1,020 Descending Denver Center
10:13AM 37.5850 -111.8792 239° Southwest 497 572 33,200 -960 Descending Salt Lake Center
10:14AM 37.5203 -112.0247 241° Southwest 477 549 32,200 -1,020 Descending Salt Lake Center
10:15AM 37.4581 -112.1664 241° Southwest 465 535 31,200 -1,080 Descending Salt Lake Center
10:16AM 37.3950 -112.3042 240° Southwest 457 526 30,100 -1,140 Descending Salt Lake Center
10:16AM 37.3697 -112.3578 239° Southwest 447 514 29,700 -1,020 Descending Los Angeles Center
10:17AM 37.3353 -112.4389 242° Southwest 446 513 29,100 -1,020 Descending Salt Lake Center
10:17AM 37.3100 -112.4914 239° Southwest 438 504 28,700 -1,080 Descending Los Angeles Center
10:18AM 37.2500 -112.6247 241° Southwest 434 499 27,700 -960 Descending Los Angeles Center
10:19AM 37.2144 -112.7036 241° Southwest 435 501 27,100 -960 Descending Salt Lake Center
10:20AM 37.1550 -112.8353 241° Southwest 432 497 26,100 -1,140 Descending Salt Lake Center
10:21AM 37.0847 -112.9878 240° Southwest 422 486 24,900 -1,080 Descending Salt Lake Center
10:21AM 37.0739 -113.0125 241° Southwest 417 480 24,700 -900 Descending Los Angeles Center
10:22AM 37.0169 -113.1367 240° Southwest 411 473 23,700 -1,080 Descending Los Angeles Center
10:23AM 36.9600 -113.2597 240° Southwest 408 470 22,600 -1,080 Descending Los Angeles Center
10:24AM 36.9031 -113.3808 240° Southwest 405 466 21,600 -1,020 Descending Los Angeles Center
10:25AM 36.8494 -113.4975 240° Southwest 393 452 20,600 -1,080 Descending Los Angeles Center
10:27AM 36.7867 -113.6350 240° Southwest 382 440 19,400 -1,140 Descending Los Angeles Center
10:28AM 36.7350 -113.7444 240° Southwest 369 425 18,400 -900 Descending Los Angeles Center
10:29AM 36.6828 -113.8536 239° Southwest 367 422 17,600 -900 Descending Los Angeles Center
10:30AM 36.6317 -113.9617 240° Southwest 364 419 16,600 -900 Descending Los Angeles Center
10:31AM 36.5917 -114.0456 239° Southwest 357 411 15,800 -1,020 Descending Los Angeles Center
10:32AM 36.5342 -114.1706 240° Southwest 350 403 14,600 -1,200 Descending Los Angeles Center
10:32AM 36.4992 -114.2539 242° Southwest 348 400 13,800 -1,020 Descending Los Angeles Center
10:33AM 36.4894 -114.2714 235° Southwest 345 397 13,600 -1,020 Descending Los Angeles Center
10:33AM 36.4656 -114.3350 245° Southwest 343 395 13,000 -1,020 Descending Los Angeles Center
10:34AM 36.4442 -114.3733 235° Southwest 339 390 12,600 -1,020 Descending Los Angeles Center
10:34AM 36.4133 -114.4306 236° Southwest 335 386 12,000 -1,020 Descending Los Angeles Center
10:35AM 36.3878 -114.4625 225° Southwest 330 380 11,600 -1,020 Descending Los Angeles Center
10:35AM 36.3561 -114.5144 233° Southwest 325 374 11,000 -1,020 Descending Los Angeles Center
10:36AM 36.3331 -114.5489 230° Southwest 320 368 10,600 -900 Descending Los Angeles Center
10:36AM 36.3008 -114.5972 230° Southwest 312 359 10,100 -900 Descending Los Angeles Center
10:37AM 36.2806 -114.6272 230° Southwest 299 344 9,700 -1,200 Descending Los Angeles Center
10:37AM 36.2575 -114.6653 233° Southwest 280 322 9,000 -1,620 Descending Los Angeles Center
10:38AM 36.2247 -114.7158 231° Southwest 274 315 8,100 -1,440 Descending Los Angeles Center
10:38AM 36.2108 -114.7369 231° Southwest 271 312 7,600 -1,020 Descending Los Angeles Center
10:39AM 36.1778 -114.7864 230° Southwest 267 307 7,100 -600 Descending Los Angeles Center
10:39AM 36.1639 -114.8089 233° Southwest 263 303 7,000 -240 Descending Los Angeles Center
10:40AM 36.1347 -114.8531 231° Southwest 257 296 6,900 -540 Descending Los Angeles Center
10:40AM 36.1206 -114.8767 233° Southwest 242 278 6,500 -1,020 Descending Los Angeles Center
10:41AM 36.0942 -114.9150 230° Southwest 245 282 5,900 -1,320 Descending Los Angeles Center
10:41AM 36.0800 -114.9381 233° Southwest 233 268 5,200 -1,320 Descending Los Angeles Center
10:42AM 36.0744 -114.9811 261° West 230 265 4,600 -1,140 Descending Los Angeles Center
10:42AM 36.0739 -115.0092 269° West 203 234 4,100 -1,260 Descending Los Angeles Center
10:43AM 36.0747 -115.0456 272° West 203 234 3,300 -1,140 Descending Los Angeles Center
10:43AM 36.0736 -115.0678 266° West 175 201 3,000 -840 Descending Los Angeles Center
10:44AM 36.0739 -115.0992 271° West 179 206 2,500 -840 Descending Los Angeles Center
10:44AM 36.0739 -115.1183 270° West 138 159 2,200 -540 Descending Los Angeles Center
10:45AM 36.0736 -115.1481 269° West 159 183 2,000 -300 Descending Los Angeles Center